createdAt,value
2018-09-05T00:00:24.805Z,6.57
2018-09-05T00:02:55.690Z,6.80
2018-09-05T00:05:26.316Z,6.60
2018-09-05T00:07:57.053Z,7.10
2018-09-05T00:10:27.685Z,7.30
2018-09-05T00:12:58.468Z,6.00
2018-09-05T00:15:29.056Z,6.60
2018-09-05T00:17:59.719Z,6.03
2018-09-05T00:20:30.404Z,6.67
2018-09-05T00:23:02.342Z,6.13
2018-09-05T00:25:32.816Z,6.70
2018-09-05T00:28:04.709Z,6.70
2018-09-05T00:30:35.310Z,6.00
2018-09-05T00:33:06.322Z,6.93
2018-09-05T00:35:37.002Z,7.10
2018-09-05T00:38:07.793Z,6.40
2018-09-05T00:40:38.429Z,6.63
2018-09-05T00:43:09.317Z,6.70
2018-09-05T00:45:39.942Z,6.60
2018-09-05T00:48:10.758Z,7.10
2018-09-05T00:50:41.413Z,6.17
2018-09-05T00:53:12.163Z,6.30
2018-09-05T00:55:43.048Z,6.37
2018-09-05T00:58:13.796Z,7.00
2018-09-05T01:00:44.597Z,6.77
2018-09-05T01:03:15.509Z,7.00
2018-09-05T01:05:46.045Z,6.57
2018-09-05T01:08:16.767Z,6.93
2018-09-05T01:10:47.473Z,7.90
2018-09-05T01:13:18.327Z,7.40
2018-09-05T01:15:49.041Z,8.03
2018-09-05T01:18:19.888Z,7.80
2018-09-05T01:20:50.597Z,7.80
2018-09-05T01:23:21.385Z,8.20
2018-09-05T01:25:52.033Z,7.57
2018-09-05T01:28:22.789Z,8.23
2018-09-05T01:30:53.453Z,8.77
2018-09-05T01:33:24.537Z,9.80
2018-09-05T01:36:27.529Z,8.50
2018-09-05T01:38:58.149Z,9.50
2018-09-05T01:41:28.769Z,8.93
2018-09-05T01:43:59.484Z,9.37
2018-09-05T01:46:30.102Z,9.17
2018-09-05T01:49:00.853Z,8.97
2018-09-05T01:51:33.589Z,8.97
2018-09-05T01:54:04.672Z,8.63
2018-09-05T01:56:35.329Z,9.73
2018-09-05T01:59:06.177Z,9.17
2018-09-05T02:01:36.846Z,8.33
2018-09-05T02:04:07.821Z,8.10
2018-09-05T02:06:38.526Z,8.97
2018-09-05T02:09:12.549Z,8.27
2018-09-05T02:11:43.179Z,7.57
2018-09-05T02:14:14.182Z,8.63
2018-09-05T02:16:44.769Z,8.20
2018-09-05T02:19:15.525Z,8.80
2018-09-05T02:21:46.094Z,9.07
2018-09-05T02:24:16.934Z,8.90
2018-09-05T02:26:47.494Z,9.87
2018-09-05T02:29:18.193Z,8.47
2018-09-05T02:31:48.839Z,8.57
2018-09-05T02:34:19.501Z,8.27
2018-09-05T02:36:50.058Z,8.97
2018-09-05T02:39:20.944Z,7.37
2018-09-05T02:41:51.712Z,7.73
2018-09-05T02:44:23.720Z,8.03
2018-09-05T02:46:54.228Z,8.87
2018-09-05T02:49:32.200Z,8.60
2018-09-05T02:52:02.921Z,8.57
2018-09-05T02:55:03.502Z,7.23
2018-09-05T02:57:34.102Z,8.00
2018-09-05T03:00:04.929Z,7.90
2018-09-05T03:02:35.571Z,8.33
2018-09-05T03:05:06.309Z,7.63
2018-09-05T03:07:36.728Z,8.67
2018-09-05T03:10:07.336Z,8.27
2018-09-05T03:12:37.977Z,7.93
2018-09-05T03:15:09.009Z,7.30
2018-09-05T03:17:39.584Z,7.80
2018-09-05T03:20:10.326Z,7.30
2018-09-05T03:22:40.822Z,6.77
2018-09-05T03:25:11.677Z,7.30
2018-09-05T03:27:42.351Z,7.30
2018-09-05T03:30:13.374Z,6.77
2018-09-05T03:32:44.424Z,7.30
2018-09-05T03:35:15.320Z,7.93
2018-09-05T03:37:46.387Z,7.43
2018-09-05T03:40:17.406Z,8.07
2018-09-05T03:42:48.317Z,7.80
2018-09-05T03:45:19.195Z,8.20
2018-09-05T03:47:49.914Z,8.50
2018-09-05T03:50:21.845Z,7.47
2018-09-05T03:52:52.699Z,7.17
2018-09-05T03:55:23.801Z,7.53
2018-09-05T03:57:54.293Z,7.40
2018-09-05T04:00:25.040Z,7.50
2018-09-05T04:02:55.703Z,7.83
2018-09-05T04:05:26.633Z,7.90
2018-09-05T04:07:57.130Z,7.20
2018-09-05T04:10:27.981Z,8.87
2018-09-05T04:12:58.732Z,7.57
2018-09-05T04:15:29.531Z,7.80
2018-09-05T04:18:00.417Z,8.37
2018-09-05T04:20:30.737Z,9.93
2018-09-05T04:23:00.989Z,8.57
2018-09-05T04:25:31.829Z,9.60
2018-09-05T04:28:02.525Z,9.40
2018-09-05T04:30:33.284Z,9.77
2018-09-05T04:33:03.988Z,10.37
2018-09-05T04:35:36.247Z,9.70
2018-09-05T04:38:06.828Z,9.90
2018-09-05T04:40:37.545Z,9.27
2018-09-05T04:43:08.154Z,9.47
2018-09-05T04:45:39.021Z,10.77
2018-09-05T04:48:09.690Z,9.63
2018-09-05T04:50:40.577Z,9.27
2018-09-05T04:53:12.102Z,10.97
2018-09-05T04:55:50.473Z,12.90
2018-09-05T04:58:26.089Z,11.43
2018-09-05T05:00:56.910Z,11.30
2018-09-05T05:03:27.581Z,11.80
2018-09-05T05:05:58.554Z,10.87
2018-09-05T05:08:29.300Z,11.07
2018-09-05T05:11:00.077Z,9.77
2018-09-05T05:13:30.770Z,10.30
2018-09-05T05:16:01.943Z,10.07
2018-09-05T05:18:32.746Z,10.93
2018-09-05T05:21:03.712Z,9.87
2018-09-05T05:23:35.768Z,9.23
2018-09-05T05:26:06.529Z,9.90
2018-09-05T05:28:36.940Z,9.20
2018-09-05T05:31:07.633Z,9.10
2018-09-05T05:33:38.350Z,9.53
2018-09-05T05:36:08.972Z,8.57
2018-09-05T05:38:42.029Z,8.57
2018-09-05T05:41:12.725Z,9.00
2018-09-05T05:43:43.461Z,8.90
2018-09-05T05:46:14.424Z,8.20
2018-09-05T05:48:45.021Z,7.43
2018-09-05T05:51:15.793Z,7.97
2018-09-05T05:53:46.307Z,8.00
2018-09-05T05:56:17.471Z,8.53
2018-09-05T05:58:48.047Z,7.17
2018-09-05T06:01:18.902Z,7.07
2018-09-05T06:03:49.573Z,7.07
2018-09-05T06:06:20.455Z,8.00
2018-09-05T06:08:50.968Z,7.57
2018-09-05T06:11:21.602Z,7.40
2018-09-05T06:13:52.515Z,6.57
2018-09-05T06:16:23.480Z,7.20
2018-09-05T06:18:54.105Z,6.37
2018-09-05T06:21:25.552Z,6.87
2018-09-05T06:23:56.349Z,8.53
2018-09-05T06:26:27.030Z,8.33
2018-09-05T06:28:57.716Z,7.90
2018-09-05T06:31:28.653Z,7.47
2018-09-05T06:33:59.241Z,7.60
2018-09-05T06:36:30.030Z,7.87
2018-09-05T06:39:00.841Z,7.20
2018-09-05T06:41:31.457Z,6.40
2018-09-05T06:44:02.051Z,6.63
2018-09-05T06:46:32.812Z,6.03
2018-09-05T06:49:03.464Z,6.30
2018-09-05T06:51:34.057Z,6.70
2018-09-05T06:54:04.646Z,6.20
2018-09-05T06:56:35.333Z,6.30
2018-09-05T06:59:05.960Z,7.47
2018-09-05T07:01:36.926Z,5.60
2018-09-05T07:04:07.477Z,5.23
2018-09-05T07:06:38.376Z,5.73
2018-09-05T07:09:12.185Z,5.63
2018-09-05T07:11:43.068Z,6.50
2018-09-05T07:14:13.701Z,7.10
2018-09-05T07:16:45.308Z,7.33
2018-09-05T07:19:16.372Z,7.13
2018-09-05T07:21:47.444Z,7.10
2018-09-05T07:24:18.277Z,7.60
2018-09-05T07:26:49.001Z,7.80
2018-09-05T07:29:19.639Z,10.07
2018-09-05T07:31:50.341Z,8.63
2018-09-05T07:34:20.882Z,8.47
2018-09-05T07:36:51.665Z,9.07
2018-09-05T07:39:22.121Z,9.60
2018-09-05T07:41:52.961Z,8.60
2018-09-05T07:44:23.568Z,11.13
2018-09-05T07:46:54.466Z,11.10
2018-09-05T07:49:25.093Z,9.40
2018-09-05T07:51:55.804Z,7.57
2018-09-05T07:54:26.518Z,9.33
2018-09-05T07:56:57.413Z,8.33
2018-09-05T07:59:28.099Z,8.13
2018-09-05T08:01:58.913Z,7.27
2018-09-05T08:04:29.517Z,7.20
2018-09-05T08:07:00.083Z,8.33
2018-09-05T08:09:30.757Z,6.90
2018-09-05T08:12:01.443Z,6.27
2018-09-05T08:14:32.061Z,6.63
2018-09-05T08:17:02.808Z,6.00
2018-09-05T08:19:33.281Z,6.77
2018-09-05T08:22:04.001Z,6.83
2018-09-05T08:24:34.717Z,6.07
2018-09-05T08:27:05.713Z,6.43
2018-09-05T08:29:36.302Z,6.63
2018-09-05T08:32:07.285Z,6.40
2018-09-05T08:34:37.740Z,6.13
2018-09-05T08:37:08.820Z,5.70
2018-09-05T08:39:39.403Z,6.20
2018-09-05T08:42:10.308Z,6.33
2018-09-05T08:44:41.216Z,6.77
2018-09-05T08:47:12.899Z,6.20
2018-09-05T08:49:43.536Z,5.97
2018-09-05T08:52:15.861Z,6.45
2018-09-05T08:54:46.445Z,6.70
2018-09-05T08:57:17.285Z,6.30
2018-09-05T08:59:47.885Z,6.75
2018-09-05T09:02:18.714Z,6.40
2018-09-05T09:04:49.321Z,7.12
2018-09-05T09:07:20.193Z,6.07
2018-09-05T09:09:50.722Z,6.70
2018-09-05T09:12:21.817Z,5.62
2018-09-05T09:14:52.320Z,6.17
2018-09-05T09:17:23.105Z,6.87
2018-09-05T09:19:53.696Z,6.57
2018-09-05T09:22:24.202Z,6.87
2018-09-05T09:24:54.797Z,6.45
2018-09-05T09:27:25.885Z,7.42
2018-09-05T09:29:56.389Z,7.22
2018-09-05T09:32:27.153Z,7.08
2018-09-05T09:34:57.669Z,6.83
2018-09-05T09:37:28.609Z,6.37
2018-09-05T09:39:59.204Z,6.78
2018-09-05T09:42:29.729Z,6.60
2018-09-05T09:45:00.413Z,7.53
2018-09-05T09:47:31.184Z,6.85
2018-09-05T09:50:01.890Z,6.80
2018-09-05T09:53:15.057Z,6.30
2018-09-05T09:55:45.616Z,7.28
2018-09-05T09:58:16.675Z,7.85
2018-09-05T10:00:52.037Z,6.70
2018-09-05T10:03:27.706Z,6.45
2018-09-05T10:06:03.534Z,6.83
2018-09-05T10:08:38.173Z,8.10
2018-09-05T10:11:13.869Z,6.72
2018-09-05T10:13:49.613Z,6.90
2018-09-05T10:16:25.220Z,5.60
2018-09-05T10:18:56.302Z,7.47
2018-09-05T10:21:26.992Z,8.45
2018-09-05T10:23:58.013Z,7.20
2018-09-05T10:26:28.727Z,7.00
2018-09-05T10:28:59.585Z,7.25
2018-09-05T10:31:30.032Z,7.00
2018-09-05T10:34:00.769Z,7.33
2018-09-05T10:36:31.361Z,7.17
2018-09-05T10:39:02.084Z,6.97
2018-09-05T10:41:32.789Z,6.85
2018-09-05T10:44:04.600Z,7.28
2018-09-05T10:46:35.445Z,7.05
2018-09-05T10:49:06.332Z,6.70
2018-09-05T10:51:41.729Z,13.20
2018-09-05T10:54:12.336Z,6.87
2018-09-05T10:56:42.809Z,6.05
2018-09-05T10:59:13.705Z,6.83
2018-09-05T11:01:44.290Z,6.85
2018-09-05T11:04:14.901Z,8.03
2018-09-05T11:06:45.514Z,7.97
2018-09-05T11:09:16.292Z,6.27
2018-09-05T11:11:47.038Z,1.47
2018-09-05T11:14:17.861Z,1.60
2018-09-05T11:16:48.611Z,1.43
2018-09-05T11:19:19.910Z,1.87
2018-09-05T11:21:50.562Z,3.23
2018-09-05T11:28:36.834Z,3.40
2018-09-05T11:31:07.955Z,3.90
2018-09-05T11:33:38.788Z,3.07
2018-09-05T11:36:09.582Z,2.70
2018-09-05T11:38:40.721Z,3.40
2018-09-05T11:41:11.303Z,2.93
2018-09-05T11:43:41.966Z,6.50
2018-09-05T11:46:12.502Z,2.07
2018-09-05T11:48:43.228Z,1.80
2018-09-05T11:51:13.757Z,1.63
2018-09-05T11:53:44.604Z,1.90
2018-09-05T11:56:15.385Z,1.77
2018-09-05T11:58:46.153Z,1.60
2018-09-05T12:01:16.865Z,1.80
2018-09-05T12:03:47.557Z,3.13
2018-09-05T12:06:18.173Z,2.80
2018-09-05T12:08:49.131Z,2.13
2018-09-05T12:11:19.793Z,1.80
2018-09-05T12:13:50.549Z,1.93
2018-09-05T12:16:21.116Z,1.50
2018-09-05T12:18:52.205Z,1.80
2018-09-05T12:21:22.777Z,1.90
2018-09-05T12:23:53.633Z,2.17
2018-09-05T12:26:24.069Z,2.40
2018-09-05T12:28:54.900Z,1.87
2018-09-05T12:31:25.381Z,1.93
2018-09-05T12:33:58.469Z,1.80
2018-09-05T12:36:29.704Z,1.50
2018-09-05T12:39:01.091Z,2.10
2018-09-05T12:41:31.816Z,2.10
2018-09-05T12:44:02.697Z,2.00
2018-09-05T12:46:33.393Z,1.90
2018-09-05T12:49:04.213Z,1.80
2018-09-05T12:51:34.953Z,1.97
2018-09-05T12:54:06.392Z,1.73
2018-09-05T12:56:37.089Z,1.90
2018-09-05T12:59:07.960Z,2.10
2018-09-05T13:01:38.549Z,2.40
2018-09-05T13:04:09.477Z,3.47
2018-09-05T13:06:40.100Z,4.00
2018-09-05T13:09:13.593Z,4.03
2018-09-05T13:11:44.424Z,4.00
2018-09-05T13:14:15.005Z,3.73
2018-09-05T13:16:45.677Z,3.70
2018-09-05T13:19:16.390Z,3.63
2018-09-05T13:21:47.026Z,3.93
2018-09-05T13:24:17.644Z,6.17
2018-09-05T13:26:48.223Z,6.37
2018-09-05T13:29:18.842Z,7.40
2018-09-05T13:31:49.586Z,7.20
2018-09-05T13:34:20.365Z,4.87
2018-09-05T13:36:51.013Z,4.70
2018-09-05T13:39:21.921Z,4.50
2018-09-05T13:41:52.530Z,3.20
2018-09-05T13:44:23.244Z,2.63
2018-09-05T13:46:53.675Z,3.13
2018-09-05T13:49:24.516Z,3.30
2018-09-05T13:52:00.174Z,2.50
2018-09-05T13:54:30.857Z,2.70
2018-09-05T13:57:01.488Z,2.63
2018-09-05T13:59:32.707Z,2.17
2018-09-05T14:02:03.325Z,2.27
2018-09-05T14:04:34.368Z,2.40
2018-09-05T14:07:04.986Z,1.80
2018-09-05T14:09:35.932Z,2.13
2018-09-05T14:12:06.766Z,1.80
2018-09-05T14:14:37.549Z,1.70
2018-09-05T14:17:08.182Z,1.83
2018-09-05T14:19:38.860Z,2.03
2018-09-05T14:22:09.468Z,1.77
2018-09-05T14:24:40.253Z,2.23
2018-09-05T14:27:10.857Z,1.90
2018-09-05T14:29:41.392Z,2.17
2018-09-05T14:32:11.946Z,1.90
2018-09-05T14:34:42.545Z,2.57
2018-09-05T14:37:13.029Z,1.57
2018-09-05T14:39:44.146Z,2.03
2018-09-05T14:42:14.684Z,1.67
2018-09-05T14:44:45.413Z,1.73
2018-09-05T14:47:15.857Z,2.07
2018-09-05T14:49:46.820Z,2.07
2018-09-05T14:52:17.368Z,1.80
2018-09-05T14:54:48.053Z,2.13
2018-09-05T14:57:18.574Z,2.20
2018-09-05T14:59:50.311Z,3.50
2018-09-05T15:02:21.594Z,1.90
2018-09-05T15:04:52.429Z,2.10
2018-09-05T15:07:23.021Z,2.03
2018-09-05T15:09:53.830Z,1.97
2018-09-05T15:12:24.279Z,2.03
2018-09-05T15:14:54.997Z,2.03
2018-09-05T15:17:25.621Z,2.27
2018-09-05T15:19:56.661Z,2.20
2018-09-05T15:22:27.093Z,2.33
2018-09-05T15:24:57.869Z,3.60
2018-09-05T15:27:28.353Z,2.27
2018-09-05T15:29:59.315Z,2.20
2018-09-05T15:32:29.792Z,2.40
2018-09-05T15:35:00.477Z,2.50
2018-09-05T15:37:30.952Z,3.20
2018-09-05T15:40:01.569Z,2.37
2018-09-05T15:42:32.188Z,2.90
2018-09-05T15:45:02.872Z,3.00
2018-09-05T15:47:33.209Z,2.60
2018-09-05T15:50:05.200Z,2.80
2018-09-05T15:52:35.885Z,3.33
2018-09-05T15:55:06.778Z,3.30
2018-09-05T15:57:37.554Z,2.97
2018-09-05T16:00:08.106Z,3.53
2018-09-05T16:02:38.794Z,3.60
2018-09-05T16:05:09.425Z,3.77
2018-09-05T16:07:39.979Z,3.90
2018-09-05T16:10:10.574Z,4.03
2018-09-05T16:12:41.227Z,3.43
2018-09-05T16:15:11.855Z,3.03
2018-09-05T16:17:42.372Z,2.70
2018-09-05T16:20:13.225Z,2.73
2018-09-05T16:22:43.817Z,3.20
2018-09-05T16:25:14.557Z,2.47
2018-09-05T16:27:45.310Z,3.13
2018-09-05T16:30:16.044Z,2.90
2018-09-05T16:32:46.790Z,2.87
2018-09-05T16:35:17.421Z,3.20
2018-09-05T16:37:47.911Z,3.10
2018-09-05T16:40:18.825Z,2.87
2018-09-05T16:42:49.523Z,2.57
2018-09-05T16:45:20.304Z,2.50
2018-09-05T16:47:50.929Z,2.80
2018-09-05T16:50:21.578Z,2.97
2018-09-05T16:52:52.264Z,3.60
2018-09-05T16:55:23.426Z,3.07
2018-09-05T16:57:54.301Z,3.00
2018-09-05T17:00:25.168Z,2.83
2018-09-05T17:02:55.824Z,2.93
2018-09-05T17:05:26.572Z,3.40
2018-09-05T17:07:57.255Z,3.63
2018-09-05T17:10:28.169Z,3.63
2018-09-05T17:12:58.731Z,3.57
2018-09-05T17:15:29.719Z,3.40
2018-09-05T17:18:00.421Z,3.63
2018-09-05T17:20:31.378Z,2.90
2018-09-05T17:23:02.108Z,3.33
2018-09-05T17:25:32.790Z,3.10
2018-09-05T17:28:03.497Z,3.17
2018-09-05T17:30:34.365Z,2.90
2018-09-05T17:33:04.972Z,3.00
2018-09-05T17:35:35.965Z,3.10
2018-09-05T17:38:06.834Z,3.00
2018-09-05T17:40:37.708Z,3.20
2018-09-05T17:43:08.380Z,3.97
2018-09-05T17:45:39.161Z,4.07
2018-09-05T17:48:09.825Z,3.90
2018-09-05T17:50:40.793Z,4.00
2018-09-05T17:53:11.389Z,3.97
2018-09-05T17:55:42.322Z,3.70
2018-09-05T17:58:12.908Z,4.27
2018-09-05T18:00:43.949Z,4.47
2018-09-05T18:03:14.582Z,4.23
2018-09-05T18:05:45.565Z,4.50
2018-09-05T18:08:16.211Z,4.50
2018-09-05T18:10:47.207Z,4.60
2018-09-05T18:13:17.837Z,4.27
2018-09-05T18:15:48.828Z,4.13
2018-09-05T18:18:19.592Z,4.40
2018-09-05T18:20:51.122Z,5.00
2018-09-05T18:23:21.741Z,4.33
2018-09-05T18:25:52.513Z,4.30
2018-09-05T18:28:23.094Z,4.13
2018-09-05T18:30:54.149Z,4.47
2018-09-05T18:33:24.709Z,4.47
2018-09-05T18:35:55.516Z,4.80
2018-09-05T18:38:26.148Z,3.90
2018-09-05T18:40:57.229Z,4.63
2018-09-05T18:43:27.846Z,5.07
2018-09-05T18:45:58.493Z,4.50
2018-09-05T18:48:29.038Z,4.83
2018-09-05T18:51:00.431Z,5.33
2018-09-05T18:53:30.960Z,5.47
2018-09-05T18:56:01.988Z,5.47
2018-09-05T18:58:32.478Z,6.27
2018-09-05T19:01:03.470Z,5.83
2018-09-05T19:03:33.979Z,6.53
2018-09-05T19:06:04.656Z,6.23
2018-09-05T19:08:36.084Z,6.77
2018-09-05T19:11:07.825Z,6.40
2018-09-05T19:13:40.131Z,6.97
2018-09-05T19:16:11.006Z,6.93
2018-09-05T19:18:41.649Z,7.00
2018-09-05T19:21:12.652Z,6.47
2018-09-05T19:23:43.161Z,6.90
2018-09-05T19:26:13.992Z,7.33
2018-09-05T19:28:44.430Z,7.27
2018-09-05T19:31:15.311Z,7.13
2018-09-05T19:33:46.126Z,6.93
2018-09-05T19:36:16.914Z,6.80
2018-09-05T19:38:47.797Z,6.43
2018-09-05T19:41:18.689Z,6.07
2018-09-05T19:43:49.296Z,5.97
2018-09-05T19:46:20.226Z,6.40
2018-09-05T19:48:51.250Z,6.63
2018-09-05T19:51:21.797Z,5.33
2018-09-05T19:53:52.329Z,6.10
2018-09-05T19:56:22.985Z,6.07
2018-09-05T19:58:53.493Z,5.87
2018-09-05T20:01:24.450Z,6.13
2018-09-05T20:03:55.084Z,5.63
2018-09-05T20:06:25.834Z,5.93
2018-09-05T20:08:56.759Z,5.63
2018-09-05T20:11:27.912Z,6.23
2018-09-05T20:13:59.784Z,6.70
2018-09-05T20:16:30.836Z,6.90
2018-09-05T20:19:01.656Z,6.23
2018-09-05T20:21:32.863Z,6.93
2018-09-05T20:24:03.572Z,7.40
2018-09-05T20:26:34.850Z,7.57
2018-09-05T20:29:05.781Z,6.73
2018-09-05T20:31:36.868Z,7.40
2018-09-05T20:34:07.880Z,7.23
2018-09-05T20:36:39.685Z,7.93
2018-09-05T20:39:12.474Z,7.40
2018-09-05T20:41:43.163Z,7.27
2018-09-05T20:44:13.701Z,7.87
2018-09-05T20:46:44.413Z,7.07
2018-09-05T20:49:14.924Z,7.50
2018-09-05T20:51:45.749Z,6.83
2018-09-05T20:54:16.472Z,7.03
2018-09-05T20:56:47.129Z,6.40
2018-09-05T20:59:17.875Z,7.50
2018-09-05T21:01:48.621Z,7.57
2018-09-05T21:04:19.270Z,6.83
2018-09-05T21:06:50.051Z,6.93
2018-09-05T21:09:20.727Z,7.33
2018-09-05T21:11:51.633Z,7.07
2018-09-05T21:14:22.648Z,7.03
2018-09-05T21:16:53.181Z,6.73
2018-09-05T21:19:24.122Z,6.77
2018-09-05T21:21:55.086Z,6.50
2018-09-05T21:24:25.712Z,6.67
2018-09-05T21:26:56.845Z,6.20
2018-09-05T21:29:27.582Z,7.17
2018-09-05T21:31:58.663Z,7.27
2018-09-05T21:34:29.459Z,6.73
2018-09-05T21:37:00.527Z,6.60
2018-09-05T21:39:31.650Z,6.57
2018-09-05T21:42:02.597Z,5.90
2018-09-05T21:44:33.421Z,6.60
2018-09-05T21:47:04.445Z,6.80
2018-09-05T21:49:35.583Z,6.27
2018-09-05T21:52:06.908Z,7.00
2018-09-05T21:54:37.708Z,6.80
2018-09-05T21:57:10.450Z,6.40
2018-09-05T21:59:41.617Z,5.97
2018-09-05T22:02:12.522Z,6.43
2018-09-05T22:04:43.182Z,6.50
2018-09-05T22:07:14.058Z,6.07
2018-09-05T22:09:44.585Z,7.40
2018-09-05T22:12:15.417Z,6.33
2018-09-05T22:14:46.266Z,6.90
2018-09-05T22:17:17.039Z,5.93
2018-09-05T22:19:47.714Z,6.60
2018-09-05T22:22:18.764Z,6.53
2018-09-05T22:24:49.413Z,6.33
2018-09-05T22:27:20.344Z,6.40
2018-09-05T22:29:51.000Z,6.37
2018-09-05T22:32:22.151Z,7.03
2018-09-05T22:34:52.690Z,6.50
2018-09-05T22:37:24.093Z,7.03
2018-09-05T22:39:54.977Z,7.03
2018-09-05T22:42:25.993Z,6.90
2018-09-05T22:45:12.840Z,6.77
2018-09-05T22:48:05.758Z,6.97
2018-09-05T22:51:01.451Z,7.03
2018-09-05T22:55:54.552Z,6.77
2018-09-05T22:58:48.875Z,7.00
2018-09-05T23:01:36.190Z,7.40
2018-09-05T23:04:36.539Z,7.80
2018-09-05T23:07:32.670Z,7.60
2018-09-05T23:10:19.527Z,7.53
2018-09-05T23:13:06.702Z,7.53
2018-09-05T23:15:53.720Z,7.37
2018-09-05T23:19:44.474Z,7.00
2018-09-05T23:22:15.088Z,6.80
2018-09-05T23:24:46.054Z,6.93
2018-09-05T23:27:16.605Z,6.97
2018-09-05T23:29:47.365Z,7.17
2018-09-05T23:32:17.953Z,7.57
2018-09-05T23:34:48.714Z,7.30
2018-09-05T23:37:19.310Z,7.60
2018-09-05T23:39:50.291Z,7.67
2018-09-05T23:42:20.923Z,6.80
2018-09-05T23:44:51.883Z,7.20
2018-09-05T23:47:23.139Z,7.13
2018-09-05T23:49:54.026Z,7.03
2018-09-05T23:52:24.719Z,7.07
2018-09-05T23:54:55.498Z,7.47
2018-09-05T23:57:26.159Z,7.27
2018-09-05T23:59:56.974Z,6.70
